sensor_id;sensor_type;location;lat;lon;timestamp;pressure;altitude;pressure_sealevel;temperature;humidity
19789;BME280;10054;59.332;18.244;2023-04-01T00:01:19;100281.45;;;-3.95;100.00
19789;BME280;10054;59.332;18.244;2023-04-01T00:03:48;100282.33;;;-3.97;100.00
19789;BME280;10054;59.332;18.244;2023-04-01T00:06:18;100284.05;;;-3.97;100.00
19789;BME280;10054;59.332;18.244;2023-04-01T00:08:47;100284.91;;;-3.97;100.00
19789;BME280;10054;59.332;18.244;2023-04-01T00:11:17;100286.17;;;-3.95;100.00
19789;BME280;10054;59.332;18.244;2023-04-01T00:13:46;100285.34;;;-3.97;100.00
19789;BME280;10054;59.332;18.244;2023-04-01T00:16:15;100287.48;;;-3.97;100.00
19789;BME280;10054;59.332;18.244;2023-04-01T00:18:44;100286.19;;;-3.97;100.00
19789;BME280;10054;59.332;18.244;2023-04-01T00:21:15;100286.17;;;-3.95;100.00
19789;BME280;10054;59.332;18.244;2023-04-01T00:23:44;100292.19;;;-3.94;100.00
19789;BME280;10054;59.332;18.244;2023-04-01T00:26:16;100298.17;;;-3.92;100.00
19789;BME280;10054;59.332;18.244;2023-04-01T00:28:45;100301.59;;;-3.90;100.00
19789;BME280;10054;59.332;18.244;2023-04-01T00:31:15;100294.72;;;-3.90;100.00
19789;BME280;10054;59.332;18.244;2023-04-01T00:33:44;100299.00;;;-3.89;100.00
19789;BME280;10054;59.332;18.244;2023-04-01T00:36:15;100299.44;;;-3.89;100.00
19789;BME280;10054;59.332;18.244;2023-04-01T00:38:45;100302.88;;;-3.90;100.00
19789;BME280;10054;59.332;18.244;2023-04-01T00:41:14;100304.17;;;-3.90;100.00
19789;BME280;10054;59.332;18.244;2023-04-01T00:43:46;100302.03;;;-3.91;100.00
19789;BME280;10054;59.332;18.244;2023-04-01T00:46:16;100302.46;;;-3.91;100.00
19789;BME280;10054;59.332;18.244;2023-04-01T00:48:53;100300.30;;;-3.90;100.00
19789;BME280;10054;59.332;18.244;2023-04-01T00:51:26;100296.01;;;-3.90;100.00
19789;BME280;10054;59.332;18.244;2023-04-01T00:53:57;100300.71;;;-3.88;100.00
19789;BME280;10054;59.332;18.244;2023-04-01T00:56:30;100307.51;;;-3.79;100.00
19789;BME280;10054;59.332;18.244;2023-04-01T00:59:06;100300.63;;;-3.79;100.00
19789;BME280;10054;59.332;18.244;2023-04-01T01:01:36;100300.64;;;-3.80;100.00
19789;BME280;10054;59.332;18.244;2023-04-01T01:04:05;100299.79;;;-3.81;100.00
19789;BME280;10054;59.332;18.244;2023-04-01T01:12:32;100299.36;;;-3.80;100.00
19789;BME280;10054;59.332;18.244;2023-04-01T01:17:56;100309.22;;;-3.78;100.00
19789;BME280;10054;59.332;18.244;2023-04-01T01:26:44;100309.64;;;-3.77;100.00
19789;BME280;10054;59.332;18.244;2023-04-01T01:32:20;100314.38;;;-3.78;100.00
19789;BME280;10054;59.332;18.244;2023-04-01T01:35:26;100317.39;;;-3.80;100.00
19789;BME280;10054;59.332;18.244;2023-04-01T01:38:15;100311.40;;;-3.82;100.00
19789;BME280;10054;59.332;18.244;2023-04-01T01:40:48;100320.00;;;-3.83;100.00
19789;BME280;10054;59.332;18.244;2023-04-01T01:43:29;100316.13;;;-3.83;100.00
19789;BME280;10054;59.332;18.244;2023-04-01T01:45:55;100313.97;;;-3.81;100.00
19789;BME280;10054;59.332;18.244;2023-04-01T01:48:26;100316.54;;;-3.81;100.00
19789;BME280;10054;59.332;18.244;2023-04-01T01:50:59;100308.84;;;-3.84;100.00
19789;BME280;10054;59.332;18.244;2023-04-01T01:53:27;100314.00;;;-3.85;100.00
19789;BME280;10054;59.332;18.244;2023-04-01T01:55:56;100315.30;;;-3.85;100.00
19789;BME280;10054;59.332;18.244;2023-04-01T01:58:34;100319.61;;;-3.87;100.00
19789;BME280;10054;59.332;18.244;2023-04-01T02:01:07;100317.88;;;-3.87;100.00
19789;BME280;10054;59.332;18.244;2023-04-01T02:03:38;100325.18;;;-3.86;100.00
19789;BME280;10054;59.332;18.244;2023-04-01T02:06:10;100327.31;;;-3.84;100.00
19789;BME280;10054;59.332;18.244;2023-04-01T02:11:17;100332.47;;;-3.84;100.00
19789;BME280;10054;59.332;18.244;2023-04-01T02:13:52;100330.33;;;-3.86;100.00
19789;BME280;10054;59.332;18.244;2023-04-01T02:19:05;100325.63;;;-3.88;100.00
19789;BME280;10054;59.332;18.244;2023-04-01T02:21:36;100324.34;;;-3.88;100.00
19789;BME280;10054;59.332;18.244;2023-04-01T02:24:09;100326.93;;;-3.90;100.00
19789;BME280;10054;59.332;18.244;2023-04-01T02:26:37;100334.66;;;-3.90;100.00
19789;BME280;10054;59.332;18.244;2023-04-01T02:29:08;100332.50;;;-3.89;100.00
19789;BME280;10054;59.332;18.244;2023-04-01T02:31:39;100328.22;;;-3.90;100.00
19789;BME280;10054;59.332;18.244;2023-04-01T02:34:09;100326.93;;;-3.90;100.00
19789;BME280;10054;59.332;18.244;2023-04-01T02:36:38;100326.06;;;-3.89;100.00
19789;BME280;10054;59.332;18.244;2023-04-01T02:39:08;100321.31;;;-3.86;100.00
19789;BME280;10054;59.332;18.244;2023-04-01T02:41:42;100320.41;;;-3.81;100.00
19789;BME280;10054;59.332;18.244;2023-04-01T02:44:12;100324.69;;;-3.80;100.00
19789;BME280;10054;59.332;18.244;2023-04-01T02:46:42;100323.84;;;-3.80;100.00
19789;BME280;10054;59.332;18.244;2023-04-01T02:49:11;100326.86;;;-3.82;100.00
19789;BME280;10054;59.332;18.244;2023-04-01T02:51:40;100324.28;;;-3.82;100.00
19789;BME280;10054;59.332;18.244;2023-04-01T02:54:09;100323.87;;;-3.83;100.00
19789;BME280;10054;59.332;18.244;2023-04-01T02:56:39;100329.89;;;-3.84;100.00
19789;BME280;10054;59.332;18.244;2023-04-01T02:59:08;100330.75;;;-3.85;100.00
19789;BME280;10054;59.332;18.244;2023-04-01T03:01:37;100331.20;;;-3.87;100.00
19789;BME280;10054;59.332;18.244;2023-04-01T03:04:06;100338.08;;;-3.88;100.00
19789;BME280;10054;59.332;18.244;2023-04-01T03:06:35;100334.21;;;-3.88;100.00
19789;BME280;10054;59.332;18.244;2023-04-01T03:09:05;100336.77;;;-3.86;100.00
19789;BME280;10054;59.332;18.244;2023-04-01T03:11:34;100334.63;;;-3.85;100.00
19789;BME280;10054;59.332;18.244;2023-04-01T03:14:03;100336.75;;;-3.83;100.00
19789;BME280;10054;59.332;18.244;2023-04-01T03:16:32;100347.06;;;-3.83;100.00
19789;BME280;10054;59.332;18.244;2023-04-01T03:19:01;100344.91;;;-3.82;100.00
19789;BME280;10054;59.332;18.244;2023-04-01T03:21:30;100351.33;;;-3.81;100.00
19789;BME280;10054;59.332;18.244;2023-04-01T03:23:59;100353.88;;;-3.78;100.00
19789;BME280;10054;59.332;18.244;2023-04-01T03:26:28;100353.00;;;-3.75;100.00
19789;BME280;10054;59.332;18.244;2023-04-01T03:28:58;100349.13;;;-3.74;100.00
19789;BME280;10054;59.332;18.244;2023-04-01T03:31:27;100358.09;;;-3.71;100.00
19789;BME280;10054;59.332;18.244;2023-04-01T03:33:56;100355.08;;;-3.70;100.00
19789;BME280;10054;59.332;18.244;2023-04-01T03:36:25;100357.22;;;-3.70;100.00
19789;BME280;10054;59.332;18.244;2023-04-01T03:38:54;100363.22;;;-3.68;100.00
19789;BME280;10054;59.332;18.244;2023-04-01T03:41:24;100367.94;;;-3.67;100.00
19789;BME280;10054;59.332;18.244;2023-04-01T03:43:54;100363.65;;;-3.68;100.00
19789;BME280;10054;59.332;18.244;2023-04-01T03:46:23;100361.07;;;-3.68;100.00
19789;BME280;10054;59.332;18.244;2023-04-01T03:48:52;100367.91;;;-3.64;100.00
19789;BME280;10054;59.332;18.244;2023-04-01T03:51:21;100362.31;;;-3.64;100.00
19789;BME280;10054;59.332;18.244;2023-04-01T03:53:50;100374.35;;;-3.64;100.00
19789;BME280;10054;59.332;18.244;2023-04-01T03:56:19;100373.94;;;-3.65;100.00
19789;BME280;10054;59.332;18.244;2023-04-01T03:58:48;100379.95;;;-3.65;100.00
19789;BME280;10054;59.332;18.244;2023-04-01T04:01:19;100383.41;;;-3.67;100.00
19789;BME280;10054;59.332;18.244;2023-04-01T04:03:52;100382.98;;;-3.68;100.00
19789;BME280;10054;59.332;18.244;2023-04-01T04:06:22;100384.27;;;-3.68;100.00
19789;BME280;10054;59.332;18.244;2023-04-01T04:08:52;100382.14;;;-3.70;100.00
19789;BME280;10054;59.332;18.244;2023-04-01T04:11:22;100386.88;;;-3.71;100.00
19789;BME280;10054;59.332;18.244;2023-04-01T04:13:52;100388.20;;;-3.73;100.00
19789;BME280;10054;59.332;18.244;2023-04-01T04:16:22;100388.64;;;-3.73;100.00
19789;BME280;10054;59.332;18.244;2023-04-01T04:18:53;100390.80;;;-3.74;100.00
19789;BME280;10054;59.332;18.244;2023-04-01T04:21:22;100391.66;;;-3.74;100.00
19789;BME280;10054;59.332;18.244;2023-04-01T04:23:51;100394.66;;;-3.74;100.00
19789;BME280;10054;59.332;18.244;2023-04-01T04:26:21;100397.23;;;-3.74;100.00
19789;BME280;10054;59.332;18.244;2023-04-01T04:28:51;100408.41;;;-3.75;100.00
19789;BME280;10054;59.332;18.244;2023-04-01T04:31:21;100406.70;;;-3.76;100.00
19789;BME280;10054;59.332;18.244;2023-04-01T04:33:51;100414.88;;;-3.77;100.00
19789;BME280;10054;59.332;18.244;2023-04-01T04:36:22;100415.72;;;-3.75;100.00
19789;BME280;10054;59.332;18.244;2023-04-01T04:38:51;100416.98;;;-3.73;100.00
19789;BME280;10054;59.332;18.244;2023-04-01T04:41:20;100416.52;;;-3.71;100.00
19789;BME280;10054;59.332;18.244;2023-04-01T04:43:52;100421.61;;;-3.64;100.00
19789;BME280;10054;59.332;18.244;2023-04-01T04:46:23;100421.97;;;-3.55;100.00
19789;BME280;10054;59.332;18.244;2023-04-01T04:48:53;100425.76;;;-3.46;100.00
19789;BME280;10054;59.332;18.244;2023-04-01T04:51:23;100426.94;;;-3.34;100.00
19789;BME280;10054;59.332;18.244;2023-04-01T04:53:52;100430.67;;;-3.18;100.00
19789;BME280;10054;59.332;18.244;2023-04-01T04:56:23;100429.60;;;-2.97;100.00
19789;BME280;10054;59.332;18.244;2023-04-01T04:59:07;100429.41;;;-2.82;100.00
19789;BME280;10054;59.332;18.244;2023-04-01T05:01:43;100428.83;;;-2.70;100.00
19789;BME280;10054;59.332;18.244;2023-04-01T05:04:12;100436.09;;;-2.65;100.00
19789;BME280;10054;59.332;18.244;2023-04-01T05:06:42;100431.22;;;-2.53;100.00
19789;BME280;10054;59.332;18.244;2023-04-01T05:09:12;100436.25;;;-2.42;100.00
19789;BME280;10054;59.332;18.244;2023-04-01T05:11:41;100442.59;;;-2.33;100.00
19789;BME280;10054;59.332;18.244;2023-04-01T05:14:15;100442.47;;;-2.24;100.00
19789;BME280;10054;59.332;18.244;2023-04-01T05:16:46;100449.23;;;-2.17;100.00
19789;BME280;10054;59.332;18.244;2023-04-01T05:19:15;100453.01;;;-2.09;100.00
19789;BME280;10054;59.332;18.244;2023-04-01T05:21:44;100450.27;;;-1.99;100.00
19789;BME280;10054;59.332;18.244;2023-04-01T05:24:13;100460.11;;;-1.93;100.00
19789;BME280;10054;59.332;18.244;2023-04-01T05:26:42;100453.91;;;-1.82;100.00
19789;BME280;10054;59.332;18.244;2023-04-01T05:29:12;100461.52;;;-1.71;100.00
19789;BME280;10054;59.332;18.244;2023-04-01T05:31:42;100461.38;;;-1.62;100.00
19789;BME280;10054;59.332;18.244;2023-04-01T05:34:11;100465.23;;;-1.60;100.00
19789;BME280;10054;59.332;18.244;2023-04-01T05:36:40;100476.21;;;-1.48;100.00
19789;BME280;10054;59.332;18.244;2023-04-01T05:39:09;100472.70;;;-1.44;100.00
19789;BME280;10054;59.332;18.244;2023-04-01T05:41:38;100480.77;;;-1.37;100.00
19789;BME280;10054;59.332;18.244;2023-04-01T05:44:10;100486.23;;;-1.28;100.00
19789;BME280;10054;59.332;18.244;2023-04-01T05:46:42;100481.77;;;-1.18;100.00
19789;BME280;10054;59.332;18.244;2023-04-01T05:49:21;100483.42;;;-1.14;100.00
19789;BME280;10054;59.332;18.244;2023-04-01T05:51:50;100487.16;;;-1.05;100.00
19789;BME280;10054;59.332;18.244;2023-04-01T05:54:20;100489.73;;;-1.05;100.00
19789;BME280;10054;59.332;18.244;2023-04-01T05:56:49;100494.84;;;-1.01;100.00
19789;BME280;10054;59.332;18.244;2023-04-01T05:59:18;100500.07;;;-1.04;100.00
19789;BME280;10054;59.332;18.244;2023-04-01T06:01:47;100495.70;;;-1.00;100.00
19789;BME280;10054;59.332;18.244;2023-04-01T06:04:17;100493.88;;;-0.95;100.00
19789;BME280;10054;59.332;18.244;2023-04-01T06:06:46;100498.56;;;-0.91;100.00
19789;BME280;10054;59.332;18.244;2023-04-01T06:09:24;100496.25;;;-0.83;100.00
19789;BME280;10054;59.332;18.244;2023-04-01T06:12:29;100488.84;;;-0.79;100.00
19789;BME280;10054;59.332;18.244;2023-04-01T06:18:02;100496.36;;;-0.67;100.00
19789;BME280;10054;59.332;18.244;2023-04-01T06:23:32;100496.53;;;-0.53;100.00
19789;BME280;10054;59.332;18.244;2023-04-01T06:29:03;100492.91;;;-0.45;100.00
19789;BME280;10054;59.332;18.244;2023-04-01T06:37:44;100510.95;;;-0.18;100.00
19789;BME280;10054;59.332;18.244;2023-04-01T06:43:23;100506.34;;;-0.04;100.00
19789;BME280;10054;59.332;18.244;2023-04-01T06:50:05;100520.52;;;0.19;100.00
19789;BME280;10054;59.332;18.244;2023-04-01T06:56:09;100531.32;;;0.39;100.00
19789;BME280;10054;59.332;18.244;2023-04-01T06:58:39;100532.11;;;0.43;100.00
19789;BME280;10054;59.332;18.244;2023-04-01T07:01:10;100527.70;;;0.46;100.00
19789;BME280;10054;59.332;18.244;2023-04-01T07:03:43;100541.59;;;0.63;100.00
19789;BME280;10054;59.332;18.244;2023-04-01T07:06:22;100539.34;;;0.67;100.00
19789;BME280;10054;59.332;18.244;2023-04-01T07:08:50;100540.65;;;0.83;100.00
19789;BME280;10054;59.332;18.244;2023-04-01T07:11:25;100547.26;;;0.96;100.00
19789;BME280;10054;59.332;18.244;2023-04-01T07:14:33;100551.12;;;0.98;98.57
19789;BME280;10054;59.332;18.244;2023-04-01T07:20:11;100558.79;;;1.20;97.62
19789;BME280;10054;59.332;18.244;2023-04-01T07:22:43;100556.85;;;1.28;96.83
19789;BME280;10054;59.332;18.244;2023-04-01T07:25:18;100556.38;;;1.47;96.80
19789;BME280;10054;59.332;18.244;2023-04-01T07:27:52;100562.64;;;1.54;92.17
19789;BME280;10054;59.332;18.244;2023-04-01T07:30:23;100564.96;;;1.65;92.71
19789;BME280;10054;59.332;18.244;2023-04-01T07:33:11;100569.19;;;1.69;91.12
19789;BME280;10054;59.332;18.244;2023-04-01T07:35:47;100558.89;;;1.81;90.93
19789;BME280;10054;59.332;18.244;2023-04-01T07:41:06;100559.54;;;1.89;87.45
19789;BME280;10054;59.332;18.244;2023-04-01T07:43:53;100571.39;;;1.99;87.81
19789;BME280;10054;59.332;18.244;2023-04-01T07:49:26;100568.31;;;2.16;83.98
19789;BME280;10054;59.332;18.244;2023-04-01T07:52:31;100576.48;;;2.18;84.49
19789;BME280;10054;59.332;18.244;2023-04-01T07:57:35;100583.50;;;2.29;84.07
19789;BME280;10054;59.332;18.244;2023-04-01T08:03:24;100583.14;;;2.42;82.75
19789;BME280;10054;59.332;18.244;2023-04-01T08:06:23;100588.21;;;2.46;80.86
19789;BME280;10054;59.332;18.244;2023-04-01T08:11:53;100581.67;;;2.76;82.20
19789;BME280;10054;59.332;18.244;2023-04-01T08:17:28;100593.66;;;2.81;74.82
19789;BME280;10054;59.332;18.244;2023-04-01T08:22:51;100597.25;;;2.77;73.12
19789;BME280;10054;59.332;18.244;2023-04-01T08:25:28;100600.22;;;2.80;73.46
19789;BME280;10054;59.332;18.244;2023-04-01T08:28:09;100601.11;;;2.79;73.20
19789;BME280;10054;59.332;18.244;2023-04-01T08:30:50;100601.73;;;2.87;73.74
19789;BME280;10054;59.332;18.244;2023-04-01T08:33:26;100604.05;;;2.96;72.57
19789;BME280;10054;59.332;18.244;2023-04-01T08:53:27;100616.17;;;3.23;66.03
19789;BME280;10054;59.332;18.244;2023-04-01T08:59:16;100626.70;;;3.34;66.52
19789;BME280;10054;59.332;18.244;2023-04-01T09:07:33;100621.83;;;3.62;65.70
19789;BME280;10054;59.332;18.244;2023-04-01T09:10:15;100620.47;;;3.64;66.33
19789;BME280;10054;59.332;18.244;2023-04-01T09:15:30;100631.45;;;3.60;66.20
19789;BME280;10054;59.332;18.244;2023-04-01T09:21:17;100636.98;;;3.76;67.20
19789;BME280;10054;59.332;18.244;2023-04-01T09:29:15;100648.03;;;3.96;66.21
19789;BME280;10054;59.332;18.244;2023-04-01T09:31:55;100645.48;;;3.94;64.91
19789;BME280;10054;59.332;18.244;2023-04-01T09:34:52;100661.62;;;4.06;65.66
19789;BME280;10054;59.332;18.244;2023-04-01T09:46:09;100656.18;;;4.12;64.21
19789;BME280;10054;59.332;18.244;2023-04-01T10:00:48;100657.33;;;4.51;62.61
19789;BME280;10054;59.332;18.244;2023-04-01T10:06:41;100666.02;;;4.63;61.87
19789;BME280;10054;59.332;18.244;2023-04-01T10:09:14;100667.31;;;4.75;61.72
19789;BME280;10054;59.332;18.244;2023-04-01T10:26:44;100681.83;;;5.06;61.07
19789;BME280;10054;59.332;18.244;2023-04-01T10:32:25;100677.92;;;4.94;61.55
19789;BME280;10054;59.332;18.244;2023-04-01T10:35:14;100683.08;;;5.07;60.86
19789;BME280;10054;59.332;18.244;2023-04-01T10:38:17;100685.76;;;5.06;59.35
19789;BME280;10054;59.332;18.244;2023-04-01T10:51:33;100696.59;;;5.28;56.72
19789;BME280;10054;59.332;18.244;2023-04-01T11:18:29;100720.05;;;5.42;54.34
19789;BME280;10054;59.332;18.244;2023-04-01T11:24:02;100709.37;;;5.58;54.77
19789;BME280;10054;59.332;18.244;2023-04-01T11:32:53;100718.37;;;5.51;53.04
19789;BME280;10054;59.332;18.244;2023-04-01T11:44:16;100718.50;;;5.48;52.56
19789;BME280;10054;59.332;18.244;2023-04-01T11:49:42;100724.31;;;5.44;53.76
19789;BME280;10054;59.332;18.244;2023-04-01T11:52:25;100734.23;;;5.58;54.21
19789;BME280;10054;59.332;18.244;2023-04-01T11:55:02;100726.95;;;5.54;54.23
19789;BME280;10054;59.332;18.244;2023-04-01T12:06:30;100739.59;;;5.55;53.00
19789;BME280;10054;59.332;18.244;2023-04-01T12:09:07;100737.48;;;5.53;53.19
19789;BME280;10054;59.332;18.244;2023-04-01T12:11:38;100739.70;;;5.52;53.06
19789;BME280;10054;59.332;18.244;2023-04-01T12:14:27;100736.91;;;5.56;54.77
19789;BME280;10054;59.332;18.244;2023-04-01T12:16:59;100741.95;;;5.61;54.75
19789;BME280;10054;59.332;18.244;2023-04-01T12:24:50;100754.95;;;5.74;53.06
19789;BME280;10054;59.332;18.244;2023-04-01T12:41:53;100774.55;;;5.64;53.34
19789;BME280;10054;59.332;18.244;2023-04-01T12:44:47;100777.74;;;5.60;55.43
19789;BME280;10054;59.332;18.244;2023-04-01T12:47:47;100777.95;;;5.44;54.59
19789;BME280;10054;59.332;18.244;2023-04-01T12:50:19;100779.31;;;5.43;55.52
19789;BME280;10054;59.332;18.244;2023-04-01T12:58:30;100791.94;;;5.43;55.75
19789;BME280;10054;59.332;18.244;2023-04-01T13:12:10;100798.83;;;5.68;57.03
19789;BME280;10054;59.332;18.244;2023-04-01T13:20:49;100817.57;;;5.57;55.75
19789;BME280;10054;59.332;18.244;2023-04-01T13:26:22;100836.70;;;5.24;55.06
19789;BME280;10054;59.332;18.244;2023-04-01T13:31:59;100838.95;;;5.11;56.43
19789;BME280;10054;59.332;18.244;2023-04-01T13:37:32;100833.49;;;5.17;57.14
19789;BME280;10054;59.332;18.244;2023-04-01T13:43:12;100838.59;;;4.97;56.79
19789;BME280;10054;59.332;18.244;2023-04-01T13:51:42;100866.12;;;4.82;55.85
19789;BME280;10054;59.332;18.244;2023-04-01T13:54:30;100861.52;;;4.77;52.79
19789;BME280;10054;59.332;18.244;2023-04-01T13:59:59;100857.14;;;4.78;51.67
19789;BME280;10054;59.332;18.244;2023-04-01T14:05:24;100863.88;;;4.72;50.96
19789;BME280;10054;59.332;18.244;2023-04-01T14:10:54;100861.34;;;4.82;50.69
19789;BME280;10054;59.332;18.244;2023-04-01T14:13:34;100866.88;;;4.86;52.01
19789;BME280;10054;59.332;18.244;2023-04-01T14:16:34;100875.98;;;4.74;53.42
19789;BME280;10054;59.332;18.244;2023-04-01T14:24:52;100880.67;;;4.65;53.58
19789;BME280;10054;59.332;18.244;2023-04-01T14:27:45;100890.22;;;4.66;53.68
19789;BME280;10054;59.332;18.244;2023-04-01T14:33:18;100892.04;;;4.50;53.50
19789;BME280;10054;59.332;18.244;2023-04-01T14:38:35;100909.75;;;4.42;53.15
19789;BME280;10054;59.332;18.244;2023-04-01T14:41:20;100903.77;;;4.39;53.42
19789;BME280;10054;59.332;18.244;2023-04-01T14:46:49;100903.92;;;4.34;53.15
19789;BME280;10054;59.332;18.244;2023-04-01T14:49:35;100918.67;;;4.22;52.80
19789;BME280;10054;59.332;18.244;2023-04-01T14:52:17;100922.34;;;4.16;51.96
19789;BME280;10054;59.332;18.244;2023-04-01T14:54:47;100941.66;;;4.11;51.47
19789;BME280;10054;59.332;18.244;2023-04-01T14:57:25;100920.81;;;4.09;51.83
19789;BME280;10054;59.332;18.244;2023-04-01T15:00:14;100928.91;;;4.15;51.98
19789;BME280;10054;59.332;18.244;2023-04-01T15:05:51;100932.11;;;4.10;51.89
19789;BME280;10054;59.332;18.244;2023-04-01T15:08:33;100935.94;;;4.13;51.88
19789;BME280;10054;59.332;18.244;2023-04-01T15:11:17;100940.80;;;4.10;52.23
19789;BME280;10054;59.332;18.244;2023-04-01T15:14:15;100950.98;;;4.05;52.39
19789;BME280;10054;59.332;18.244;2023-04-01T15:20:00;100959.98;;;3.94;52.66
19789;BME280;10054;59.332;18.244;2023-04-01T15:22:43;100957.64;;;3.85;52.28
19789;BME280;10054;59.332;18.244;2023-04-01T15:31:10;100966.91;;;3.81;53.24
19789;BME280;10054;59.332;18.244;2023-04-01T15:36:29;100968.56;;;3.70;51.49
19789;BME280;10054;59.332;18.244;2023-04-01T15:50:40;100974.08;;;3.59;53.30
19789;BME280;10054;59.332;18.244;2023-04-01T15:53:30;100984.47;;;3.61;53.10
19789;BME280;10054;59.332;18.244;2023-04-01T15:56:07;100981.63;;;3.54;53.17
19789;BME280;10054;59.332;18.244;2023-04-01T15:58:41;100985.75;;;3.46;53.30
19789;BME280;10054;59.332;18.244;2023-04-01T16:06:53;100997.81;;;3.34;55.35
19789;BME280;10054;59.332;18.244;2023-04-01T16:09:42;101000.98;;;3.29;55.93
19789;BME280;10054;59.332;18.244;2023-04-01T16:15:29;101006.08;;;3.17;56.63
19789;BME280;10054;59.332;18.244;2023-04-01T16:20:44;101016.63;;;2.96;55.93
19789;BME280;10054;59.332;18.244;2023-04-01T16:25:49;101023.22;;;2.93;57.06
19789;BME280;10054;59.332;18.244;2023-04-01T16:28:33;101020.73;;;2.89;57.89
19789;BME280;10054;59.332;18.244;2023-04-01T16:33:49;101041.67;;;2.67;57.17
19789;BME280;10054;59.332;18.244;2023-04-01T16:36:29;101028.00;;;2.57;57.37
19789;BME280;10054;59.332;18.244;2023-04-01T16:39:27;101042.50;;;2.49;56.70
19789;BME280;10054;59.332;18.244;2023-04-01T16:45:41;101044.86;;;2.41;57.60
19789;BME280;10054;59.332;18.244;2023-04-01T16:50:29;101052.05;;;2.29;59.17
19789;BME280;10054;59.332;18.244;2023-04-01T16:56:14;101060.12;;;2.19;59.91
19789;BME280;10054;59.332;18.244;2023-04-01T16:58:36;101068.11;;;2.10;59.95
19789;BME280;10054;59.332;18.244;2023-04-01T17:01:19;101069.09;;;2.04;60.13
19789;BME280;10054;59.332;18.244;2023-04-01T17:03:50;101073.95;;;2.00;60.85
19789;BME280;10054;59.332;18.244;2023-04-01T17:06:28;101080.07;;;1.97;61.69
19789;BME280;10054;59.332;18.244;2023-04-01T17:12:13;101092.08;;;1.82;62.91
19789;BME280;10054;59.332;18.244;2023-04-01T17:14:54;101098.69;;;1.76;63.02
19789;BME280;10054;59.332;18.244;2023-04-01T17:22:57;101092.55;;;1.56;64.82
19789;BME280;10054;59.332;18.244;2023-04-01T17:25:40;101109.06;;;1.54;64.78
19789;BME280;10054;59.332;18.244;2023-04-01T17:28:35;101103.95;;;1.49;65.42
19789;BME280;10054;59.332;18.244;2023-04-01T17:33:48;101111.08;;;1.40;66.07
19789;BME280;10054;59.332;18.244;2023-04-01T17:36:36;101117.19;;;1.37;66.77
19789;BME280;10054;59.332;18.244;2023-04-01T17:41:52;101124.28;;;1.27;66.17
19789;BME280;10054;59.332;18.244;2023-04-01T17:47:47;101127.02;;;1.18;67.39
19789;BME280;10054;59.332;18.244;2023-04-01T17:50:21;101135.35;;;1.12;67.20
19789;BME280;10054;59.332;18.244;2023-04-01T17:53:01;101135.84;;;1.08;68.00
19789;BME280;10054;59.332;18.244;2023-04-01T17:58:38;101147.73;;;0.94;68.37
19789;BME280;10054;59.332;18.244;2023-04-01T18:03:54;101157.86;;;0.83;67.71
19789;BME280;10054;59.332;18.244;2023-04-01T18:23:31;101186.50;;;0.45;64.38
19789;BME280;10054;59.332;18.244;2023-04-01T18:26:23;101177.88;;;0.43;64.53
19789;BME280;10054;59.332;18.244;2023-04-01T18:31:38;101198.71;;;0.37;65.17
19789;BME280;10054;59.332;18.244;2023-04-01T18:53:17;101231.05;;;0.04;68.74
19789;BME280;10054;59.332;18.244;2023-04-01T18:55:54;101237.99;;;0.02;69.36
19789;BME280;10054;59.332;18.244;2023-04-01T18:58:28;101238.94;;;-0.04;69.88
19789;BME280;10054;59.332;18.244;2023-04-01T19:01:17;101244.59;;;-0.07;69.88
19789;BME280;10054;59.332;18.244;2023-04-01T19:06:52;101259.36;;;-0.15;70.99
19789;BME280;10054;59.332;18.244;2023-04-01T19:09:25;101260.67;;;-0.17;70.49
19789;BME280;10054;59.332;18.244;2023-04-01T19:25:57;101274.66;;;-0.38;75.85
19789;BME280;10054;59.332;18.244;2023-04-01T19:31:33;101277.28;;;-0.42;76.33
19789;BME280;10054;59.332;18.244;2023-04-01T19:36:55;101292.87;;;-0.48;74.97
19789;BME280;10054;59.332;18.244;2023-04-01T19:51:07;101302.92;;;-0.68;75.37
19789;BME280;10054;59.332;18.244;2023-04-01T19:56:28;101312.86;;;-0.69;77.84
19789;BME280;10054;59.332;18.244;2023-04-01T20:02:04;101312.94;;;-0.78;81.43
19789;BME280;10054;59.332;18.244;2023-04-01T20:04:46;101320.30;;;-0.85;83.15
19789;BME280;10054;59.332;18.244;2023-04-01T20:07:49;101326.78;;;-0.85;82.47
19789;BME280;10054;59.332;18.244;2023-04-01T20:10:35;101323.34;;;-0.88;83.67
19789;BME280;10054;59.332;18.244;2023-04-01T20:16:10;101331.13;;;-0.93;83.13
19789;BME280;10054;59.332;18.244;2023-04-01T20:18:58;101340.64;;;-0.95;85.33
19789;BME280;10054;59.332;18.244;2023-04-01T20:21:46;101335.05;;;-1.02;86.58
19789;BME280;10054;59.332;18.244;2023-04-01T20:24:20;101334.20;;;-1.07;87.32
19789;BME280;10054;59.332;18.244;2023-04-01T20:26:53;101335.94;;;-1.09;87.75
19789;BME280;10054;59.332;18.244;2023-04-01T20:43:48;101350.22;;;-1.26;94.97
19789;BME280;10054;59.332;18.244;2023-04-01T20:46:19;101354.55;;;-1.26;92.03
19789;BME280;10054;59.332;18.244;2023-04-01T20:49:10;101350.23;;;-1.30;94.60
19789;BME280;10054;59.332;18.244;2023-04-01T20:51:39;101353.25;;;-1.31;94.73
19789;BME280;10054;59.332;18.244;2023-04-01T21:08:27;101378.72;;;-1.43;95.09
19789;BME280;10054;59.332;18.244;2023-04-01T21:11:16;101382.17;;;-1.45;97.83
19789;BME280;10054;59.332;18.244;2023-04-01T21:19:17;101391.67;;;-1.47;99.01
19789;BME280;10054;59.332;18.244;2023-04-01T21:24:49;101393.00;;;-1.53;100.00
19789;BME280;10054;59.332;18.244;2023-04-01T21:33:26;101397.31;;;-1.54;100.00
19789;BME280;10054;59.332;18.244;2023-04-01T21:36:08;101399.90;;;-1.55;100.00
19789;BME280;10054;59.332;18.244;2023-04-01T21:47:00;101407.66;;;-1.60;100.00
19789;BME280;10054;59.332;18.244;2023-04-01T21:49:54;101410.68;;;-1.59;100.00